Time;durP1;ratioP1;P1;durP2;ratioP2;P2;SDS_P1;SDS_P2;PMS_P1;PMS_P2;Temp;Humidity;BMP_temperature;BMP_pressure;BME280_temperature;BME280_humidity;BME280_pressure;Samples;Min_cycle;Max_cycle;Signal;HPM_P1;HPM_P2
2023/11/28 00:00:34;;;;;;;;;;;;;;;;;;4985274;28;20763;-66
2023/11/28 00:03:00;;;;;;;;;;;;;;;;;;4986796;28;20236;-66
2023/11/28 00:05:26;;;;;;;;;;;;;;;;;;4988065;28;19924;-68
2023/11/28 00:07:52;;;;;;;;;;;;;;;;;;4981643;28;20742;-66
2023/11/28 00:10:18;;;;;;;;;;;;;;;;;;4986481;28;20041;-65
2023/11/28 00:12:44;;;;;;;;;;;;;;;;;;4983360;28;19921;-66
2023/11/28 00:15:10;;;;;;;;;;;;;;;;;;4988294;28;20023;-66
2023/11/28 00:17:36;;;;;;;;;;;;;;;;;;4987547;28;19925;-66
2023/11/28 00:20:02;;;;;;;;;;;;;;;;;;4985332;28;20040;-66
2023/11/28 00:22:28;;;;;;;;;;;;;;;;;;4986072;28;20058;-67
2023/11/28 00:24:54;;;;;;;;;;;;;;;;;;4982008;28;19923;-67
2023/11/28 00:27:20;;;;;;;;;;;;;;;;;;4986980;28;19917;-66
2023/11/28 00:29:46;;;;;;;;;;;;;;;;;;4981636;28;19918;-66
2023/11/28 00:32:12;;;;;;;;;;;;;;;;;;4986033;28;20028;-66
2023/11/28 00:34:38;;;;;;;;;;;;;;;;;;4983646;28;20612;-65
2023/11/28 00:37:04;;;;;;;;;;;;;;;;;;4985756;28;20382;-66
2023/11/28 00:39:30;;;;;;;;;;;;;;;;;;4984445;28;20578;-67
2023/11/28 00:41:56;;;;;;;;;;;;;;;;;;4982962;28;19917;-68
2023/11/28 00:44:22;;;;;;;;;;;;;;;;;;4986301;28;20582;-66
2023/11/28 00:46:48;;;;;;;;;;;;;;;;;;4985648;28;20019;-67
2023/11/28 00:49:14;;;;;;;;;;;;;;;;;;4989460;28;20590;-66
2023/11/28 00:51:40;;;;;;;;;;;;;;;;;;4986466;28;20557;-66
2023/11/28 00:54:06;;;;;;;;;;;;;;;;;;4987010;28;19924;-72
2023/11/28 00:56:32;;;;;;;;;;;;;;;;;;4985846;28;19929;-72
2023/11/28 00:58:58;;;;;;;;;;;;;;;;;;4984649;28;20683;-73
2023/11/28 01:01:24;;;;;;;;;;;;;;;;;;4984421;28;19971;-73
2023/11/28 01:03:50;;;;;;;;;;;;;;;;;;4983490;28;19928;-73
2023/11/28 01:06:16;;;;;;;;;;;;;;;;;;4985576;28;19921;-73
2023/11/28 01:08:42;;;;;;;;;;;;;;;;;;4981577;28;19918;-72
2023/11/28 01:11:08;;;;;;;;;;;;;;;;;;4991539;28;19971;-72
2023/11/28 01:13:34;;;;;;;;;;;;;;;;;;4986783;28;20027;-73
2023/11/28 01:16:00;;;;;;;;;;;;;;;;;;4984128;28;20396;-72
2023/11/28 01:18:25;;;;;;;;;;;;;;;;;;4985967;28;19925;-72
2023/11/28 01:20:51;;;;;;;;;;;;;;;;;;4984423;28;19918;-72
2023/11/28 01:23:17;;;;;;;;;;;;;;;;;;4987582;28;19917;-72
2023/11/28 01:25:43;;;;;;;;;;;;;;;;;;4982024;28;20368;-73
2023/11/28 01:28:09;;;;;;;;;;;;;;;;;;4984735;28;19921;-73
2023/11/28 01:30:35;;;;;;;;;;;;;;;;;;5000257;28;19924;-74
2023/11/28 01:33:02;;;;;;;;;;;;;;;;;;4980027;28;19921;-72
2023/11/28 01:35:28;;;;;;;;;;;;;;;;;;4985294;28;19926;-72
2023/11/28 01:37:54;;;;;;;;;;;;;;;;;;4981799;28;20594;-72
2023/11/28 01:40:20;;;;;;;;;;;;;;;;;;4982842;28;20423;-72
2023/11/28 01:42:49;;;;;;;;;;;;;;;;;;4983245;28;20001;-73
2023/11/28 01:45:15;;;;;;;;;;;;;;;;;;4985676;28;19917;-73
2023/11/28 01:47:41;;;;;;;;;;;;;;;;;;4982566;28;19922;-72
2023/11/28 01:50:07;;;;;;;;;;;;;;;;;;4985897;28;20411;-72
2023/11/28 01:52:33;;;;;;;;;;;;;;;;;;4983208;28;19918;-73
2023/11/28 01:54:59;;;;;;;;;;;;;;;;;;4984160;28;20314;-72
2023/11/28 01:57:25;;;;;;;;;;;;;;;;;;4984536;28;19924;-71
2023/11/28 01:59:51;;;;;;;;;;;;;;;;;;4985230;28;19925;-71
2023/11/28 02:02:17;;;;;;;;;;;;;;;;;;4988177;28;19921;-74
2023/11/28 02:04:43;;;;;;;;;;;;;;;;;;4983486;28;19948;-71
2023/11/28 02:07:09;;;;;;;;;;;;;;;;;;4983310;28;20433;-72
2023/11/28 02:09:35;;;;;;;;;;;;;;;;;;5003700;28;20450;-72
2023/11/28 02:12:01;;;;;;;;;;;;;;;;;;4985100;28;20516;-72
2023/11/28 02:14:27;;;;;;;;;;;;;;;;;;4988455;28;20020;-73
2023/11/28 02:16:53;;;;;;;;;;;;;;;;;;5004816;28;19929;-72
2023/11/28 02:19:19;;;;;;;;;;;;;;;;;;4991837;28;19918;-72
2023/11/28 02:21:45;;;;;;;;;;;;;;;;;;4986230;28;19921;-72
2023/11/28 02:24:11;;;;;;;;;;;;;;;;;;4988898;28;19923;-72
2023/11/28 02:26:37;;;;;;;;;;;;;;;;;;4986030;28;19917;-72
2023/11/28 02:29:03;;;;;;;;;;;;;;;;;;4988170;28;20004;-71
2023/11/28 02:31:29;;;;;;;;;;;;;;;;;;4988422;28;19923;-72
2023/11/28 02:33:55;;;;;;;;;;;;;;;;;;4986808;28;19918;-72
2023/11/28 02:36:21;;;;;;;;;;;;;;;;;;4988447;28;19922;-72
2023/11/28 02:38:47;;;;;;;;;;;;;;;;;;4986108;28;19976;-73
2023/11/28 02:41:13;;;;;;;;;;;;;;;;;;4989312;28;20015;-71
2023/11/28 02:43:39;;;;;;;;;;;;;;;;;;4988820;28;20682;-73
2023/11/28 02:46:05;;;;;;;;;;;;;;;;;;4990938;28;20359;-73
2023/11/28 02:48:31;;;;;;;;;;;;;;;;;;4990826;28;20003;-74
2023/11/28 02:50:57;;;;;;;;;;;;;;;;;;4986150;28;19930;-73
2023/11/28 02:53:22;;;;;;;;;;;;;;;;;;4989076;28;20446;-74
2023/11/28 02:55:48;;;;;;;;;;;;;;;;;;4989188;28;19925;-72
2023/11/28 02:58:14;;;;;;;;;;;;;;;;;;4989183;28;19917;-72
2023/11/28 03:00:41;;;;;;;;;;;;;;;;;;4983730;28;19921;-72
2023/11/28 03:03:07;;;;;;;;;;;;;;;;;;4988672;28;20745;-72
2023/11/28 03:05:33;;;;;;;;;;;;;;;;;;4987590;28;19949;-72
2023/11/28 03:07:58;;;;;;;;;;;;;;;;;;4983579;28;19925;-72
2023/11/28 03:10:24;;;;;;;;;;;;;;;;;;4990300;28;19922;-72
2023/11/28 03:12:50;;;;;;;;;;;;;;;;;;4986903;28;19917;-72
2023/11/28 03:15:16;;;;;;;;;;;;;;;;;;4984599;28;19984;-73
2023/11/28 03:17:42;;;;;;;;;;;;;;;;;;4986125;28;19921;-72
2023/11/28 03:20:09;;;;;;;;;;;;;;;;;;4989635;28;19932;-71
2023/11/28 03:22:35;;;;;;;;;;;;;;;;;;4987730;28;19956;-72
2023/11/28 03:25:01;;;;;;;;;;;;;;;;;;4985989;28;19968;-72
2023/11/28 03:27:27;;;;;;;;;;;;;;;;;;4988095;28;20016;-74
2023/11/28 03:29:53;;;;;;;;;;;;;;;;;;4985774;28;20053;-72
2023/11/28 03:32:19;;;;;;;;;;;;;;;;;;4988246;28;19918;-72
2023/11/28 03:34:45;;;;;;;;;;;;;;;;;;4984993;28;19926;-72
2023/11/28 03:37:11;;;;;;;;;;;;;;;;;;4985475;28;19918;-74
2023/11/28 03:39:37;;;;;;;;;;;;;;;;;;4987182;28;20026;-72
2023/11/28 03:42:03;;;;;;;;;;;;;;;;;;4986814;28;19961;-72
2023/11/28 03:44:29;;;;;;;;;;;;;;;;;;4987392;28;20032;-72
2023/11/28 03:46:55;;;;;;;;;;;;;;;;;;4987380;28;19959;-74
2023/11/28 03:49:21;;;;;;;;;;;;;;;;;;4990695;28;19914;-71
2023/11/28 03:51:47;;;;;;;;;;;;;;;;;;4985725;28;20007;-71
2023/11/28 03:54:13;;;;;;;;;;;;;;;;;;4988611;28;19924;-71
2023/11/28 03:56:39;;;;;;;;;;;;;;;;;;4983841;28;19928;-71
2023/11/28 03:59:05;;;;;;;;;;;;;;;;;;4988168;28;19995;-72
2023/11/28 04:01:32;;;;;;;;;;;;;;;;;;4989196;28;19918;-72
2023/11/28 04:03:58;;;;;;;;;;;;;;;;;;4984648;28;20465;-72
2023/11/28 04:06:24;;;;;;;;;;;;;;;;;;4990856;28;19917;-74
2023/11/28 04:08:52;;;;;;;;;;;;;;;;;;4982695;28;20046;-73
2023/11/28 04:11:18;;;;;;;;;;;;;;;;;;4989169;28;20525;-72
2023/11/28 04:13:44;;;;;;;;;;;;;;;;;;4986762;28;19929;-73
2023/11/28 04:16:10;;;;;;;;;;;;;;;;;;4986549;28;19936;-72
2023/11/28 04:18:36;;;;;;;;;;;;;;;;;;4987381;28;19953;-72
2023/11/28 04:21:02;;;;;;;;;;;;;;;;;;4986414;28;20379;-72
2023/11/28 04:23:28;;;;;;;;;;;;;;;;;;4984380;28;19960;-73
2023/11/28 04:25:54;;;;;;;;;;;;;;;;;;4981807;28;19917;-72
2023/11/28 04:28:20;;;;;;;;;;;;;;;;;;4985211;28;20071;-73
2023/11/28 04:30:46;;;;;;;;;;;;;;;;;;4992807;28;20003;-71
2023/11/28 04:33:12;;;;;;;;;;;;;;;;;;4984904;28;20721;-71
2023/11/28 04:35:38;;;;;;;;;;;;;;;;;;4987725;28;20677;-71
2023/11/28 04:38:04;;;;;;;;;;;;;;;;;;4987273;28;19921;-71
2023/11/28 04:40:30;;;;;;;;;;;;;;;;;;4986767;28;19918;-70
2023/11/28 04:42:56;;;;;;;;;;;;;;;;;;4985540;28;20004;-71
2023/11/28 04:45:22;;;;;;;;;;;;;;;;;;4988784;28;20466;-71
2023/11/28 04:47:48;;;;;;;;;;;;;;;;;;4983637;28;20359;-69
2023/11/28 04:50:14;;;;;;;;;;;;;;;;;;4990002;28;20400;-70
2023/11/28 04:52:40;;;;;;;;;;;;;;;;;;4985960;28;19918;-70
2023/11/28 04:55:05;;;;;;;;;;;;;;;;;;4986425;28;19932;-71
2023/11/28 04:57:31;;;;;;;;;;;;;;;;;;4987123;28;19924;-71
2023/11/28 04:59:57;;;;;;;;;;;;;;;;;;4982980;28;20004;-70
2023/11/28 05:02:23;;;;;;;;;;;;;;;;;;4988214;28;20026;-70
2023/11/28 05:04:49;;;;;;;;;;;;;;;;;;4984853;28;20261;-70
2023/11/28 05:07:18;;;;;;;;;;;;;;;;;;4985309;28;20300;-70
2023/11/28 05:09:43;;;;;;;;;;;;;;;;;;4982165;28;20010;-71
2023/11/28 05:12:09;;;;;;;;;;;;;;;;;;4986872;28;19917;-71
2023/11/28 05:14:36;;;;;;;;;;;;;;;;;;4985620;28;20037;-70
2023/11/28 05:17:04;;;;;;;;;;;;;;;;;;4985474;28;19965;-71
2023/11/28 05:19:30;;;;;;;;;;;;;;;;;;4985817;28;20145;-70
2023/11/28 05:21:56;;;;;;;;;;;;;;;;;;4980377;28;19924;-72
2023/11/28 05:24:22;;;;;;;;;;;;;;;;;;4989616;28;19917;-70
2023/11/28 05:26:48;;;;;;;;;;;;;;;;;;4985709;28;20443;-70
2023/11/28 05:29:14;;;;;;;;;;;;;;;;;;4985375;28;19917;-70
2023/11/28 05:31:40;;;;;;;;;;;;;;;;;;4982018;28;20778;-70
2023/11/28 05:34:06;;;;;;;;;;;;;;;;;;4987117;28;19917;-70
2023/11/28 05:36:32;;;;;;;;;;;;;;;;;;4991091;28;20012;-71
2023/11/28 05:38:58;;;;;;;;;;;;;;;;;;4984892;28;20846;-73
2023/11/28 05:41:24;;;;;;;;;;;;;;;;;;4993209;28;19926;-72
2023/11/28 05:43:50;;;;;;;;;;;;;;;;;;4987365;28;19917;-70
2023/11/28 05:46:16;;;;;;;;;;;;;;;;;;4991178;28;19921;-70
2023/11/28 05:48:42;;;;;;;;;;;;;;;;;;4985844;28;19922;-70
2023/11/28 05:51:08;;;;;;;;;;;;;;;;;;4992879;28;20344;-70
2023/11/28 05:53:35;;;;;;;;;;;;;;;;;;4992019;28;20194;-72
2023/11/28 05:56:01;;;;;;;;;;;;;;;;;;4990542;28;20437;-72
2023/11/28 05:58:27;;;;;;;;;;;;;;;;;;4990757;28;19917;-71
2023/11/28 06:00:53;;;;;;;;;;;;;;;;;;4988529;28;19924;-71
2023/11/28 06:03:19;;;;;;;;;;;;;;;;;;4990987;28;20032;-72
2023/11/28 06:05:45;;;;;;;;;;;;;;;;;;4986430;28;19917;-71
2023/11/28 06:08:11;;;;;;;;;;;;;;;;;;4990492;28;19945;-71
2023/11/28 06:10:37;;;;;;;;;;;;;;;;;;4988130;28;19955;-71
2023/11/28 06:13:03;;;;;;;;;;;;;;;;;;4987514;28;20371;-71
2023/11/28 06:15:29;;;;;;;;;;;;;;;;;;4988415;28;19935;-71
2023/11/28 06:17:56;;;;;;;;;;;;;;;;;;4984811;28;20008;-71
2023/11/28 06:20:22;;;;;;;;;;;;;;;;;;4989410;28;20358;-71
2023/11/28 06:22:48;;;;;;;;;;;;;;;;;;4987160;28;19918;-71
2023/11/28 06:25:14;;;;;;;;;;;;;;;;;;4988832;28;20630;-71
2023/11/28 06:27:40;;;;;;;;;;;;;;;;;;4986571;28;19947;-72
2023/11/28 06:30:06;;;;;;;;;;;;;;;;;;4988057;28;20085;-70
2023/11/28 06:32:32;;;;;;;;;;;;;;;;;;4991210;28;20626;-70
2023/11/28 06:34:58;;;;;;;;;;;;;;;;;;4987040;28;19978;-71
2023/11/28 06:37:24;;;;;;;;;;;;;;;;;;4985655;28;20411;-71
2023/11/28 06:39:51;;;;;;;;;;;;;;;;;;4985854;28;19917;-70
2023/11/28 06:42:17;;;;;;;;;;;;;;;;;;4990012;28;20025;-71
2023/11/28 06:44:43;;;;;;;;;;;;;;;;;;4985685;28;19971;-71
2023/11/28 06:47:09;;;;;;;;;;;;;;;;;;4987979;28;19926;-70
2023/11/28 06:49:35;;;;;;;;;;;;;;;;;;4985824;28;20367;-70
2023/11/28 06:52:02;;;;;;;;;;;;;;;;;;4986622;28;19914;-70
2023/11/28 06:54:28;;;;;;;;;;;;;;;;;;4991588;28;20033;-70
2023/11/28 06:56:54;;;;;;;;;;;;;;;;;;4984730;28;19918;-72
2023/11/28 06:59:20;;;;;;;;;;;;;;;;;;4986215;28;20424;-72
2023/11/28 07:01:48;;;;;;;;;;;;;;;;;;4982585;28;19929;-70
2023/11/28 07:04:14;;;;;;;;;;;;;;;;;;4987511;28;19918;-72
2023/11/28 07:06:40;;;;;;;;;;;;;;;;;;4983455;28;19999;-72
2023/11/28 07:09:06;;;;;;;;;;;;;;;;;;4986775;28;19917;-72
2023/11/28 07:11:33;;;;;;;;;;;;;;;;;;4988451;28;19924;-70
2023/11/28 07:14:00;;;;;;;;;;;;;;;;;;4984299;28;20007;-72
2023/11/28 07:16:26;;;;;;;;;;;;;;;;;;4980931;28;19929;-72
2023/11/28 07:18:52;;;;;;;;;;;;;;;;;;4982183;28;19928;-71
2023/11/28 07:21:18;;;;;;;;;;;;;;;;;;4987208;28;19921;-72
2023/11/28 07:23:44;;;;;;;;;;;;;;;;;;4991223;28;19917;-72
2023/11/28 07:26:10;;;;;;;;;;;;;;;;;;4986751;28;20091;-72
2023/11/28 07:28:36;;;;;;;;;;;;;;;;;;4985446;28;20031;-71
2023/11/28 07:31:02;;;;;;;;;;;;;;;;;;4981843;28;20377;-72
2023/11/28 07:33:28;;;;;;;;;;;;;;;;;;4983864;28;19940;-72
2023/11/28 07:35:54;;;;;;;;;;;;;;;;;;4984248;28;19975;-72
2023/11/28 07:38:21;;;;;;;;;;;;;;;;;;4987362;28;19925;-72
2023/11/28 07:40:47;;;;;;;;;;;;;;;;;;4980387;28;19921;-72
2023/11/28 07:43:13;;;;;;;;;;;;;;;;;;4984806;28;20265;-72
2023/11/28 07:45:40;;;;;;;;;;;;;;;;;;4981321;28;19918;-71
2023/11/28 07:48:06;;;;;;;;;;;;;;;;;;4988379;28;19921;-72
2023/11/28 07:50:32;;;;;;;;;;;;;;;;;;4986735;28;20519;-72
2023/11/28 07:52:59;;;;;;;;;;;;;;;;;;4983764;28;20701;-72
2023/11/28 07:55:24;;;;;;;;;;;;;;;;;;4987549;28;19921;-72
2023/11/28 07:57:50;;;;;;;;;;;;;;;;;;4985800;28;19925;-72
2023/11/28 08:00:20;;;;;;;;;;;;;;;;;;4988018;28;19914;-72
2023/11/28 08:02:46;;;;;;;;;;;;;;;;;;4985242;28;19921;-71
2023/11/28 08:05:12;;;;;;;;;;;;;;;;;;4988221;28;20331;-71
2023/11/28 08:07:38;;;;;;;;;;;;;;;;;;4988415;28;20426;-72
2023/11/28 08:10:10;;;;;;;;;;;;;;;;;;4985870;28;20284;-72
2023/11/28 08:12:37;;;;;;;;;;;;;;;;;;4988813;28;19922;-71
2023/11/28 08:15:02;;;;;;;;;;;;;;;;;;4986909;28;19992;-71
2023/11/28 08:17:28;;;;;;;;;;;;;;;;;;4987767;28;19930;-72
2023/11/28 08:19:55;;;;;;;;;;;;;;;;;;4980824;28;19969;-71
2023/11/28 08:22:22;;;;;;;;;;;;;;;;;;4989522;28;19921;-71
2023/11/28 08:24:48;;;;;;;;;;;;;;;;;;4986001;28;19918;-71
2023/11/28 08:27:17;;;;;;;;;;;;;;;;;;4984480;28;19924;-71
2023/11/28 08:29:43;;;;;;;;;;;;;;;;;;4984333;28;19917;-71
2023/11/28 08:32:09;;;;;;;;;;;;;;;;;;4985752;28;20370;-73
2023/11/28 08:34:35;;;;;;;;;;;;;;;;;;4988354;28;19975;-71
2023/11/28 08:37:02;;;;;;;;;;;;;;;;;;4985865;28;19917;-72
2023/11/28 08:39:27;;;;;;;;;;;;;;;;;;4994425;28;19989;-72
2023/11/28 08:41:54;;;;;;;;;;;;;;;;;;4982945;28;19918;-72
2023/11/28 08:44:20;;;;;;;;;;;;;;;;;;4988519;28;19918;-71
2023/11/28 08:46:46;;;;;;;;;;;;;;;;;;4984078;28;19921;-72
2023/11/28 08:49:12;;;;;;;;;;;;;;;;;;4984074;28;19925;-71
2023/11/28 08:51:40;;;;;;;;;;;;;;;;;;4982664;28;19918;-71
2023/11/28 08:54:06;;;;;;;;;;;;;;;;;;4987066;28;20481;-72
2023/11/28 08:56:32;;;;;;;;;;;;;;;;;;4984867;28;19957;-72
2023/11/28 08:58:58;;;;;;;;;;;;;;;;;;4979285;28;19921;-71
2023/11/28 09:01:24;;;;;;;;;;;;;;;;;;4986336;28;20020;-71
2023/11/28 09:03:53;;;;;;;;;;;;;;;;;;4982879;28;19917;-72
2023/11/28 09:06:19;;;;;;;;;;;;;;;;;;4983224;28;19972;-71
2023/11/28 09:08:45;;;;;;;;;;;;;;;;;;4982960;28;19957;-70
2023/11/28 09:11:11;;;;;;;;;;;;;;;;;;4987819;28;20015;-70
2023/11/28 09:13:37;;;;;;;;;;;;;;;;;;4984559;28;20459;-73
2023/11/28 09:16:08;;;;;;;;;;;;;;;;;;4982873;28;20201;-71
2023/11/28 09:18:34;;;;;;;;;;;;;;;;;;4985332;28;19955;-71
2023/11/28 09:21:00;;;;;;;;;;;;;;;;;;4979441;28;20360;-71
2023/11/28 09:23:27;;;;;;;;;;;;;;;;;;4988793;28;19921;-71
2023/11/28 09:25:53;;;;;;;;;;;;;;;;;;4987436;28;19917;-70
2023/11/28 09:28:19;;;;;;;;;;;;;;;;;;4987218;28;19917;-71
2023/11/28 09:30:45;;;;;;;;;;;;;;;;;;4984428;28;20482;-72
2023/11/28 09:33:11;;;;;;;;;;;;;;;;;;4989103;28;20230;-71
2023/11/28 09:35:40;;;;;;;;;;;;;;;;;;4984994;28;20822;-70
2023/11/28 09:38:07;;;;;;;;;;;;;;;;;;4990666;28;19964;-71
2023/11/28 09:40:33;;;;;;;;;;;;;;;;;;4988882;28;19917;-70
2023/11/28 09:42:59;;;;;;;;;;;;;;;;;;4984883;28;19927;-71
2023/11/28 09:45:24;;;;;;;;;;;;;;;;;;4983891;28;20020;-70
2023/11/28 09:47:50;;;;;;;;;;;;;;;;;;4983046;28;19972;-71
2023/11/28 09:50:16;;;;;;;;;;;;;;;;;;4986865;28;20705;-71
2023/11/28 09:52:43;;;;;;;;;;;;;;;;;;4982024;28;19918;-71
2023/11/28 09:55:08;;;;;;;;;;;;;;;;;;4982221;28;20983;-71
2023/11/28 09:57:35;;;;;;;;;;;;;;;;;;4982582;28;19918;-71
2023/11/28 10:00:01;;;;;;;;;;;;;;;;;;4985180;28;19977;-71
2023/11/28 10:02:30;;;;;;;;;;;;;;;;;;4987849;28;19913;-71
2023/11/28 10:04:56;;;;;;;;;;;;;;;;;;4983376;28;19917;-70
2023/11/28 10:07:22;;;;;;;;;;;;;;;;;;4984424;28;19918;-71
2023/11/28 10:09:48;;;;;;;;;;;;;;;;;;4980807;28;20367;-70
2023/11/28 10:12:15;;;;;;;;;;;;;;;;;;4982034;28;20016;-72
2023/11/28 10:14:41;;;;;;;;;;;;;;;;;;4981637;28;19929;-70
2023/11/28 10:17:07;;;;;;;;;;;;;;;;;;4986700;28;19922;-70
2023/11/28 10:19:33;;;;;;;;;;;;;;;;;;4985363;28;19923;-72
2023/11/28 10:21:59;;;;;;;;;;;;;;;;;;4985547;28;21415;-72
2023/11/28 10:24:25;;;;;;;;;;;;;;;;;;4988318;28;19975;-70
2023/11/28 10:26:51;;;;;;;;;;;;;;;;;;4983818;28;20496;-72
2023/11/28 10:29:18;;;;;;;;;;;;;;;;;;4988039;28;19917;-71
2023/11/28 10:31:44;;;;;;;;;;;;;;;;;;4988836;28;19917;-71
2023/11/28 10:34:10;;;;;;;;;;;;;;;;;;4987666;28;20562;-71
2023/11/28 10:36:36;;;;;;;;;;;;;;;;;;4988777;28;20753;-72
2023/11/28 10:39:02;;;;;;;;;;;;;;;;;;4979860;28;20218;-72
2023/11/28 10:41:28;;;;;;;;;;;;;;;;;;4988189;28;20372;-71
2023/11/28 10:43:54;;;;;;;;;;;;;;;;;;4985510;28;19964;-71
2023/11/28 10:46:20;;;;;;;;;;;;;;;;;;4989893;28;19922;-71
2023/11/28 10:48:46;;;;;;;;;;;;;;;;;;4987792;28;19976;-70
2023/11/28 10:51:12;;;;;;;;;;;;;;;;;;4989567;28;20437;-71
2023/11/28 10:53:38;;;;;;;;;;;;;;;;;;4984996;28;19924;-71
2023/11/28 10:56:04;;;;;;;;;;;;;;;;;;4987965;28;20414;-70
2023/11/28 10:58:30;;;;;;;;;;;;;;;;;;4986738;28;20044;-71
2023/11/28 11:01:02;;;;;;;;;;;;;;;;;;4984901;28;20672;-71
2023/11/28 11:03:28;;;;;;;;;;;;;;;;;;4985181;28;19921;-72
2023/11/28 11:05:54;;;;;;;;;;;;;;;;;;4983037;28;19917;-71
2023/11/28 11:08:20;;;;;;;;;;;;;;;;;;4989309;28;19921;-72
2023/11/28 11:10:46;;;;;;;;;;;;;;;;;;4984441;28;19987;-70
2023/11/28 11:13:12;;;;;;;;;;;;;;;;;;4986103;28;19918;-70
2023/11/28 11:15:38;;;;;;;;;;;;;;;;;;4984604;28;19933;-72
2023/11/28 11:18:04;;;;;;;;;;;;;;;;;;4990164;28;19974;-72
2023/11/28 11:20:30;;;;;;;;;;;;;;;;;;4987364;28;20339;-72
2023/11/28 11:22:56;;;;;;;;;;;;;;;;;;4985532;28;19936;-72
2023/11/28 11:25:22;;;;;;;;;;;;;;;;;;4985311;28;19918;-72
2023/11/28 11:27:48;;;;;;;;;;;;;;;;;;4982954;28;20433;-71
2023/11/28 11:30:14;;;;;;;;;;;;;;;;;;4987143;28;19917;-71
2023/11/28 11:32:40;;;;;;;;;;;;;;;;;;4981866;28;19924;-72
2023/11/28 11:35:08;;;;;;;;;;;;;;;;;;4982180;28;19921;-72
2023/11/28 11:37:36;;;;;;;;;;;;;;;;;;4987973;28;20026;-70
2023/11/28 11:40:02;;;;;;;;;;;;;;;;;;4983476;28;20897;-70
2023/11/28 11:42:33;;;;;;;;;;;;;;;;;;4986177;28;20008;-71
2023/11/28 11:44:59;;;;;;;;;;;;;;;;;;4985325;28;19921;-70
2023/11/28 11:47:26;;;;;;;;;;;;;;;;;;4988553;28;19960;-70
2023/11/28 11:49:52;;;;;;;;;;;;;;;;;;4982877;28;19926;-72
2023/11/28 11:52:19;;;;;;;;;;;;;;;;;;4988426;28;19917;-71
2023/11/28 11:54:45;;;;;;;;;;;;;;;;;;4983042;28;20040;-72
2023/11/28 11:57:11;;;;;;;;;;;;;;;;;;4991151;28;19923;-71
2023/11/28 11:59:37;;;;;;;;;;;;;;;;;;4986437;28;19996;-71
2023/11/28 12:02:04;;;;;;;;;;;;;;;;;;5001089;28;19918;-71
2023/11/28 12:04:30;;;;;;;;;;;;;;;;;;4988012;28;20827;-70
2023/11/28 12:06:56;;;;;;;;;;;;;;;;;;4983962;28;20502;-72
2023/11/28 12:09:22;;;;;;;;;;;;;;;;;;4987360;28;19924;-70
2023/11/28 12:11:48;;;;;;;;;;;;;;;;;;4985933;28;20552;-71
2023/11/28 12:14:14;;;;;;;;;;;;;;;;;;4988548;28;20296;-72
2023/11/28 12:16:40;;;;;;;;;;;;;;;;;;4986215;28;20600;-71
2023/11/28 12:19:05;;;;;;;;;;;;;;;;;;5018121;23;19936;-87
2023/11/28 12:21:31;;;;;;;;;;;;;;;;;;5034343;28;20363;-83
2023/11/28 12:23:57;;;;;;;;;;;;;;;;;;5028037;28;20451;-87
2023/11/28 12:26:23;;;;;;;;;;;;;;;;;;5048019;28;19920;-85
2023/11/28 12:28:49;;;;;;;;;;;;;;;;;;5028774;28;19917;-84
2023/11/28 12:31:15;;;;;;;;;;;;;;;;;;5050634;28;20402;-85
2023/11/28 12:33:41;;;;;;;;;;;;;;;;;;5044167;28;20402;-86
2023/11/28 12:36:07;;;;;;;;;;;;;;;;;;5041482;28;20007;-85
2023/11/28 12:38:34;;;;;;;;;;;;;;;;;;5060589;28;19920;-85
2023/11/28 12:41:01;;;;;;;;;;;;;;;;;;5033174;28;19924;-83
2023/11/28 12:43:27;;;;;;;;;;;;;;;;;;5040999;28;19923;-84
2023/11/28 12:45:53;;;;;;;;;;;;;;;;;;5038112;28;19916;-84
2023/11/28 12:48:19;;;;;;;;;;;;;;;;;;5030720;28;20350;-83
2023/11/28 12:50:45;;;;;;;;;;;;;;;;;;5034549;28;19924;-83
2023/11/28 12:53:11;;;;;;;;;;;;;;;;;;5034633;28;19912;-82
2023/11/28 12:55:37;;;;;;;;;;;;;;;;;;5032319;28;19921;-85
2023/11/28 12:58:03;;;;;;;;;;;;;;;;;;5040633;28;20151;-83
2023/11/28 13:00:29;;;;;;;;;;;;;;;;;;5056354;28;19916;-85
2023/11/28 13:02:56;;;;;;;;;;;;;;;;;;5050456;28;20011;-83
2023/11/28 13:05:23;;;;;;;;;;;;;;;;;;5054556;28;19917;-84
2023/11/28 13:07:49;;;;;;;;;;;;;;;;;;5034320;28;19971;-85
2023/11/28 13:10:15;;;;;;;;;;;;;;;;;;5043128;28;19944;-86
2023/11/28 13:12:41;;;;;;;;;;;;;;;;;;5031872;28;19920;-81
2023/11/28 13:15:10;;;;;;;;;;;;;;;;;;5040672;28;19921;-85
2023/11/28 13:17:36;;;;;;;;;;;;;;;;;;5042436;28;19923;-83
2023/11/28 13:20:06;;;;;;;;;;;;;;;;;;5033122;28;20622;-83
2023/11/28 13:22:32;;;;;;;;;;;;;;;;;;5029773;28;19921;-81
2023/11/28 13:24:58;;;;;;;;;;;;;;;;;;5044511;28;19921;-81
2023/11/28 13:27:24;;;;;;;;;;;;;;;;;;5032966;28;19920;-86
2023/11/28 13:29:50;;;;;;;;;;;;;;;;;;5029510;28;19974;-83
2023/11/28 13:32:16;;;;;;;;;;;;;;;;;;5029009;28;19914;-84
2023/11/28 13:34:44;;;;;;;;;;;;;;;;;;5026436;28;19921;-84
2023/11/28 13:37:10;;;;;;;;;;;;;;;;;;5032497;28;19917;-84
2023/11/28 13:39:36;;;;;;;;;;;;;;;;;;5028952;28;19970;-81
2023/11/28 13:42:02;;;;;;;;;;;;;;;;;;5029378;28;19917;-84
2023/11/28 13:44:29;;;;;;;;;;;;;;;;;;5039934;28;19921;-83
2023/11/28 13:46:55;;;;;;;;;;;;;;;;;;5028310;28;19952;-84
2023/11/28 13:49:21;;;;;;;;;;;;;;;;;;5030471;28;20134;-84
2023/11/28 13:51:49;;;;;;;;;;;;;;;;;;5030294;28;20021;-82
2023/11/28 13:54:15;;;;;;;;;;;;;;;;;;5030178;28;19932;-84
2023/11/28 13:56:41;;;;;;;;;;;;;;;;;;5035688;28;19928;-82
2023/11/28 13:59:07;;;;;;;;;;;;;;;;;;5037571;28;19920;-83
2023/11/28 14:01:33;;;;;;;;;;;;;;;;;;5032855;28;20387;-83
2023/11/28 14:03:59;;;;;;;;;;;;;;;;;;5038362;28;21162;-84
2023/11/28 14:06:26;;;;;;;;;;;;;;;;;;5044070;28;19916;-82
2023/11/28 14:08:52;;;;;;;;;;;;;;;;;;5031534;28;19916;-82
2023/11/28 14:11:18;;;;;;;;;;;;;;;;;;5040331;28;19916;-84
2023/11/28 14:13:44;;;;;;;;;;;;;;;;;;5039366;28;20131;-81
2023/11/28 14:16:10;;;;;;;;;;;;;;;;;;5039524;28;20700;-81
2023/11/28 14:18:36;;;;;;;;;;;;;;;;;;5049600;28;19920;-82
2023/11/28 14:21:01;;;;;;;;;;;;;;;;;;5048858;28;20433;-82
2023/11/28 14:23:30;;;;;;;;;;;;;;;;;;5047715;28;19917;-82
2023/11/28 14:25:56;;;;;;;;;;;;;;;;;;5058266;28;19924;-84
2023/11/28 14:28:22;;;;;;;;;;;;;;;;;;5069842;28;19917;-82
2023/11/28 14:30:48;;;;;;;;;;;;;;;;;;5052457;28;19935;-84
2023/11/28 14:33:14;;;;;;;;;;;;;;;;;;5057672;28;19912;-84
2023/11/28 14:35:39;;;;;;;;;;;;;;;;;;5039002;28;19925;-83
2023/11/28 14:38:07;;;;;;;;;;;;;;;;;;5045224;28;20000;-83
2023/11/28 14:40:33;;;;;;;;;;;;;;;;;;5040051;28;20014;-83
2023/11/28 14:42:59;;;;;;;;;;;;;;;;;;5039020;28;19928;-83
2023/11/28 14:45:25;;;;;;;;;;;;;;;;;;5039294;28;19912;-81
2023/11/28 14:47:53;;;;;;;;;;;;;;;;;;5043445;28;19917;-83
2023/11/28 14:50:19;;;;;;;;;;;;;;;;;;5037419;28;19917;-82
2023/11/28 14:52:45;;;;;;;;;;;;;;;;;;5039779;28;19921;-81
2023/11/28 14:55:11;;;;;;;;;;;;;;;;;;5039459;28;19928;-83
2023/11/28 14:57:37;;;;;;;;;;;;;;;;;;5037665;28;19921;-82
2023/11/28 15:00:05;;;;;;;;;;;;;;;;;;5035972;28;19956;-84
2023/11/28 15:02:32;;;;;;;;;;;;;;;;;;5035685;28;20367;-84
2023/11/28 15:04:58;;;;;;;;;;;;;;;;;;5032916;28;20600;-84
2023/11/28 15:07:24;;;;;;;;;;;;;;;;;;5037222;28;19924;-83
2023/11/28 15:09:50;;;;;;;;;;;;;;;;;;5033834;28;19924;-83
2023/11/28 15:12:15;;;;;;;;;;;;;;;;;;5035357;28;19928;-83
2023/11/28 15:14:41;;;;;;;;;;;;;;;;;;5036769;28;19927;-84
2023/11/28 15:17:07;;;;;;;;;;;;;;;;;;5031309;28;19921;-84
2023/11/28 15:19:35;;;;;;;;;;;;;;;;;;5039772;28;19936;-85
2023/11/28 15:22:01;;;;;;;;;;;;;;;;;;5033879;28;19981;-84
2023/11/28 15:24:27;;;;;;;;;;;;;;;;;;5031679;28;19920;-82
2023/11/28 15:26:54;;;;;;;;;;;;;;;;;;5038130;28;20009;-83
2023/11/28 15:29:21;;;;;;;;;;;;;;;;;;5034086;28;19917;-84
2023/11/28 15:31:51;;;;;;;;;;;;;;;;;;5032044;28;19957;-82
2023/11/28 15:34:17;;;;;;;;;;;;;;;;;;5036761;28;20432;-83
2023/11/28 15:36:43;;;;;;;;;;;;;;;;;;5053929;28;19920;-83
2023/11/28 15:39:14;;;;;;;;;;;;;;;;;;5053422;28;19984;-84
2023/11/28 15:41:40;;;;;;;;;;;;;;;;;;5046478;28;20070;-82
2023/11/28 15:44:06;;;;;;;;;;;;;;;;;;5036116;28;20004;-85
2023/11/28 15:46:32;;;;;;;;;;;;;;;;;;5042135;28;20011;-83
2023/11/28 15:48:58;;;;;;;;;;;;;;;;;;5036224;28;20829;-81
2023/11/28 15:51:24;;;;;;;;;;;;;;;;;;5040473;28;20071;-83
2023/11/28 15:53:50;;;;;;;;;;;;;;;;;;5037384;28;20492;-84
2023/11/28 15:56:16;;;;;;;;;;;;;;;;;;5035266;28;19925;-83
2023/11/28 15:58:42;;;;;;;;;;;;;;;;;;5032339;28;20286;-83
2023/11/28 16:01:08;;;;;;;;;;;;;;;;;;5035770;28;19924;-82
2023/11/28 16:03:34;;;;;;;;;;;;;;;;;;5035092;28;19917;-83
2023/11/28 16:06:01;;;;;;;;;;;;;;;;;;5032010;28;20660;-83
2023/11/28 16:08:27;;;;;;;;;;;;;;;;;;5030145;28;19925;-82
2023/11/28 16:10:53;;;;;;;;;;;;;;;;;;5030044;28;19917;-82
2023/11/28 16:13:19;;;;;;;;;;;;;;;;;;5030713;28;19921;-83
2023/11/28 16:15:45;;;;;;;;;;;;;;;;;;5030984;28;19935;-82
2023/11/28 16:18:11;;;;;;;;;;;;;;;;;;5034938;28;19917;-83
2023/11/28 16:20:37;;;;;;;;;;;;;;;;;;5030159;28;19929;-83
2023/11/28 16:23:03;;;;;;;;;;;;;;;;;;5028711;28;19923;-81
2023/11/28 16:25:29;;;;;;;;;;;;;;;;;;5031334;28;19917;-83
2023/11/28 16:27:55;;;;;;;;;;;;;;;;;;5029713;28;19917;-84
2023/11/28 16:30:21;;;;;;;;;;;;;;;;;;5026327;28;19916;-83
2023/11/28 16:32:47;;;;;;;;;;;;;;;;;;5026295;28;20016;-81
2023/11/28 16:35:13;;;;;;;;;;;;;;;;;;5030238;28;19925;-81
2023/11/28 16:37:39;;;;;;;;;;;;;;;;;;5033467;28;20036;-82